Time;durP1;ratioP1;P1;durP2;ratioP2;P2;SDS_P1;SDS_P2;PMS_P1;PMS_P2;Temp;Humidity;BMP_temperature;BMP_pressure;BME280_temperature;BME280_humidity;BME280_pressure;Samples;Min_cycle;Max_cycle;Signal;HPM_P1;HPM_P2
2021/12/04 00:00:11;;;;;;;3.30;2.47;;;;;;;3.87;75.24;97057.16;5136425;27;20280;-65
2021/12/04 00:02:38;;;;;;;3.53;2.30;;;;;;;3.87;75.65;97054.53;5136443;27;20309;-64
2021/12/04 00:05:06;;;;;;;4.10;2.10;;;;;;;3.87;76.36;97065.00;5138856;27;20205;-64
2021/12/04 00:07:33;;;;;;;2.20;2.00;;;;;;;3.87;76.81;97051.94;5136174;27;20257;-64
2021/12/04 00:10:02;;;;;;;2.13;1.93;;;;;;;3.89;76.99;97049.19;5134218;27;20241;-64
2021/12/04 00:12:30;;;;;;;2.80;1.93;;;;;;;3.94;77.24;97047.16;5136620;27;20214;-64
2021/12/04 00:14:56;;;;;;;3.23;2.40;;;;;;;3.91;77.18;97037.72;5138118;27;20204;-64
2021/12/04 00:17:23;;;;;;;2.60;2.40;;;;;;;3.91;76.91;97035.09;5138108;27;20219;-64
2021/12/04 00:19:51;;;;;;;2.57;2.13;;;;;;;3.91;76.80;97018.59;5139658;27;20217;-64
2021/12/04 00:22:18;;;;;;;3.10;2.40;;;;;;;3.92;76.30;97017.66;5139797;27;20210;-64
2021/12/04 00:24:44;;;;;;;3.33;2.30;;;;;;;3.92;76.47;97010.66;5142276;27;20211;-64
2021/12/04 00:27:11;;;;;;;3.90;3.03;;;;;;;3.91;77.03;97014.19;5139445;27;20221;-65
2021/12/04 00:29:38;;;;;;;3.10;2.57;;;;;;;3.96;76.84;96998.22;5138986;27;20698;-64
2021/12/04 00:32:11;;;;;;;3.30;2.37;;;;;;;3.95;77.65;96991.34;5139169;27;20209;-64
2021/12/04 00:34:41;;;;;;;3.37;2.47;;;;;;;3.97;78.67;96998.16;5137283;27;20269;-64
2021/12/04 00:37:33;;;;;;;3.80;2.73;;;;;;;3.98;78.34;96997.22;5137543;27;20221;-64
2021/12/04 00:50:56;;;;;;;3.50;3.03;;;;;;;3.98;77.60;96978.09;5138981;27;20244;-64
2021/12/04 00:53:23;;;;;;;3.50;3.00;;;;;;;3.96;78.25;96988.63;5138782;27;20207;-64
2021/12/04 00:55:50;;;;;;;3.47;2.80;;;;;;;3.95;77.83;96978.25;5139939;27;20212;-64
2021/12/04 00:58:16;;;;;;;5.00;3.20;;;;;;;3.95;77.81;96968.66;5140612;27;20214;-64
2021/12/04 01:00:43;;;;;;;3.80;3.13;;;;;;;3.97;78.20;96965.97;5138863;27;20214;-64
2021/12/04 01:03:10;;;;;;;4.37;3.20;;;;;;;3.97;77.95;96960.72;5137199;27;20214;-65
2021/12/04 01:05:37;;;;;;;4.80;3.17;;;;;;;3.92;78.05;96953.16;5139116;27;20217;-64
2021/12/04 01:08:03;;;;;;;3.47;3.17;;;;;;;3.94;77.61;96945.22;5140747;27;20217;-64
2021/12/04 01:10:31;;;;;;;3.07;2.77;;;;;;;3.94;78.70;96940.00;5138656;27;20230;-64
2021/12/04 01:13:00;;;;;;;3.63;3.00;;;;;;;3.86;79.61;96945.69;5138631;27;20210;-65
2021/12/04 01:15:27;;;;;;;4.83;3.60;;;;;;;3.81;80.09;96929.47;5138944;27;20249;-64
2021/12/04 01:17:54;;;;;;;5.13;3.30;;;;;;;3.77;80.88;96917.53;5140747;27;20218;-64
2021/12/04 01:20:20;;;;;;;4.30;3.73;;;;;;;3.75;82.70;96908.94;5138539;27;20225;-64
2021/12/04 01:22:47;;;;;;;4.73;3.20;;;;;;;3.72;83.66;96918.75;5138669;27;20237;-64
2021/12/04 01:25:13;;;;;;;4.70;3.70;;;;;;;3.67;84.78;96918.19;5138559;27;20217;-64
2021/12/04 01:27:42;;;;;;;5.17;3.40;;;;;;;3.64;84.59;96895.69;5140077;27;20212;-64
2021/12/04 01:30:09;;;;;;;5.10;3.40;;;;;;;3.56;84.96;96903.16;5137271;27;20233;-64
2021/12/04 01:32:36;;;;;;;4.63;3.60;;;;;;;3.47;86.12;96908.94;5138219;27;20225;-63
2021/12/04 01:35:02;;;;;;;4.30;3.20;;;;;;;3.31;87.89;96902.94;5138180;27;20214;-63
2021/12/04 01:37:29;;;;;;;4.93;3.67;;;;;;;3.20;90.41;96894.09;5135565;27;20213;-63
2021/12/04 01:39:55;;;;;;;4.53;3.20;;;;;;;3.16;91.41;96895.19;5137956;27;20712;-63
2021/12/04 01:42:22;;;;;;;5.70;3.57;;;;;;;3.12;93.28;96893.72;5138237;27;20209;-63
2021/12/04 01:44:50;;;;;;;4.73;3.27;;;;;;;3.11;95.04;96900.69;5138361;27;20691;-63
2021/12/04 01:47:20;;;;;;;6.00;3.47;;;;;;;3.05;96.07;96906.28;5140589;27;20208;-63
2021/12/04 01:49:48;;;;;;;4.90;3.67;;;;;;;3.04;97.96;96902.00;5137789;27;20217;-63
2021/12/04 01:52:17;;;;;;;4.43;3.83;;;;;;;3.02;99.93;96901.25;5137705;27;20682;-64
2021/12/04 01:54:44;;;;;;;4.50;3.47;;;;;;;3.02;100.00;96896.03;5136354;27;20224;-63
2021/12/04 01:57:13;;;;;;;5.53;3.30;;;;;;;3.03;100.00;96891.63;5140094;27;20666;-63
2021/12/04 01:59:39;;;;;;;4.17;3.43;;;;;;;2.99;100.00;96888.38;5134575;27;20576;-63
2021/12/04 02:02:07;;;;;;;5.27;3.47;;;;;;;2.96;100.00;96877.28;5133970;27;20205;-63
2021/12/04 02:04:34;;;;;;;4.90;3.60;;;;;;;2.95;100.00;96880.81;5134358;27;20206;-63
2021/12/04 02:07:03;;;;;;;5.57;3.70;;;;;;;2.89;100.00;96874.19;5136792;27;20209;-62
2021/12/04 02:09:30;;;;;;;4.30;3.90;;;;;;;2.90;100.00;96869.81;5134288;27;20209;-62
2021/12/04 02:11:56;;;;;;;3.77;3.27;;;;;;;2.91;100.00;96855.84;5134087;27;20279;-62
2021/12/04 02:14:23;;;;;;;3.50;3.20;;;;;;;2.90;100.00;96855.00;5137618;27;20213;-62
2021/12/04 02:16:50;;;;;;;3.93;3.53;;;;;;;2.94;100.00;96851.25;5140107;27;20213;-62
2021/12/04 02:19:19;;;;;;;3.10;2.57;;;;;;;2.99;100.00;96849.22;5137319;27;20209;-62
2021/12/04 02:21:46;;;;;;;3.43;2.70;;;;;;;3.04;100.00;96847.19;5135757;27;20213;-62
2021/12/04 02:24:13;;;;;;;4.03;2.73;;;;;;;3.05;100.00;96854.09;5137031;27;20698;-62
2021/12/04 02:26:40;;;;;;;4.83;3.07;;;;;;;3.10;100.00;96841.59;5134888;27;20212;-62
2021/12/04 02:29:07;;;;;;;6.10;3.27;;;;;;;3.12;100.00;96823.25;5137409;27;20210;-62
2021/12/04 02:31:33;;;;;;;3.37;3.00;;;;;;;3.10;100.00;96825.09;5137267;27;20576;-62
2021/12/04 02:34:00;;;;;;;3.57;2.90;;;;;;;3.07;100.00;96820.06;5137192;27;20206;-62
2021/12/04 02:36:26;;;;;;;4.03;3.17;;;;;;;3.06;100.00;96819.22;5135120;27;20209;-62
2021/12/04 02:38:54;;;;;;;5.33;3.90;;;;;;;3.02;100.00;96822.97;5136509;27;20213;-62
2021/12/04 02:41:23;;;;;;;5.07;3.90;;;;;;;3.05;100.00;96812.31;5136670;27;20209;-62
2021/12/04 02:43:50;;;;;;;4.93;3.53;;;;;;;2.98;100.00;96815.38;5136936;27;20687;-62
2021/12/04 02:46:18;;;;;;;4.37;3.50;;;;;;;2.93;100.00;96802.63;5137672;27;20217;-62
2021/12/04 02:48:47;;;;;;;4.30;3.37;;;;;;;2.88;100.00;96809.88;5136758;27;21517;-62
2021/12/04 02:51:15;;;;;;;4.47;3.50;;;;;;;2.89;100.00;96800.31;5136906;27;20246;-62
2021/12/04 02:53:42;;;;;;;4.73;3.57;;;;;;;2.84;100.00;96792.75;5137000;27;20583;-62
2021/12/04 02:56:11;;;;;;;4.67;3.60;;;;;;;2.77;100.00;96791.44;5134227;27;20217;-62
2021/12/04 02:58:39;;;;;;;4.10;3.63;;;;;;;2.76;100.00;96779.31;5137264;27;20221;-62
2021/12/04 03:01:05;;;;;;;6.43;4.50;;;;;;;2.74;100.00;96781.19;5136546;27;20225;-62
2021/12/04 03:03:32;;;;;;;4.60;4.10;;;;;;;2.76;100.00;96783.72;5136928;27;20220;-62
2021/12/04 03:05:58;;;;;;;4.80;4.07;;;;;;;2.78;100.00;96776.63;5134247;27;20212;-62
2021/12/04 03:08:25;;;;;;;6.10;4.63;;;;;;;2.81;100.00;96772.06;5136949;27;20209;-62
2021/12/04 03:10:52;;;;;;;6.20;4.43;;;;;;;2.76;100.00;96758.44;5136636;27;20240;-62
2021/12/04 03:13:21;;;;;;;5.60;4.97;;;;;;;2.69;100.00;96757.13;5135144;27;20205;-62
2021/12/04 03:15:55;;;;;;;6.90;4.73;;;;;;;2.70;100.00;96771.03;5136357;27;20681;-62
2021/12/04 03:18:22;;;;;;;6.07;5.47;;;;;;;2.70;100.00;96750.97;5136624;27;20212;-62
2021/12/04 03:20:51;;;;;;;7.90;5.40;;;;;;;2.64;100.00;96753.13;5136312;27;20670;-62
2021/12/04 03:23:24;;;;;;;6.57;5.23;;;;;;;2.64;100.00;96743.53;5137244;27;20239;-62
2021/12/04 03:25:53;;;;;;;5.90;4.87;;;;;;;2.70;100.00;96737.94;5137564;27;20216;-62
2021/12/04 03:28:21;;;;;;;7.93;5.20;;;;;;;2.60;100.00;96729.00;5136653;27;20209;-62
2021/12/04 03:30:52;;;;;;;7.83;5.17;;;;;;;2.66;100.00;96728.66;5136148;27;20241;-62
2021/12/04 03:41:31;;;;;;;8.97;6.53;;;;;;;2.58;100.00;96696.97;5134805;27;20586;-62
2021/12/04 03:43:59;;;;;;;8.60;5.93;;;;;;;2.59;100.00;96693.44;5136190;27;20236;-62
2021/12/04 03:46:26;;;;;;;8.67;6.87;;;;;;;2.63;100.00;96694.91;5136334;27;20554;-62
2021/12/04 03:48:53;;;;;;;9.23;6.60;;;;;;;2.61;100.00;96682.91;5136847;27;20217;-62
2021/12/04 03:51:21;;;;;;;9.47;6.93;;;;;;;2.65;100.00;96682.63;5139991;27;20237;-62
2021/12/04 03:53:49;;;;;;;8.70;6.27;;;;;;;2.65;100.00;96669.59;5140366;27;20575;-61
2021/12/04 03:56:19;;;;;;;10.40;6.97;;;;;;;2.65;100.00;96667.00;5140378;27;20217;-61
2021/12/04 03:58:45;;;;;;;8.80;6.63;;;;;;;2.68;100.00;96663.34;5141419;27;20625;-61
2021/12/04 04:01:13;;;;;;;9.93;7.10;;;;;;;2.67;100.00;96665.13;5141660;27;20217;-61
2021/12/04 04:03:40;;;;;;;9.97;7.07;;;;;;;2.67;100.00;96653.84;5140028;27;20209;-61
2021/12/04 04:06:06;;;;;;;10.10;6.97;;;;;;;2.67;100.00;96654.69;5135276;27;20655;-61
2021/12/04 04:08:33;;;;;;;7.90;6.57;;;;;;;2.71;100.00;96645.75;5140734;27;20214;-61
2021/12/04 04:10:59;;;;;;;9.13;6.77;;;;;;;2.68;100.00;96647.69;5141512;27;20693;-61
2021/12/04 04:13:26;;;;;;;9.03;6.33;;;;;;;2.69;100.00;96641.56;5140015;27;20648;-61
2021/12/04 04:15:53;;;;;;;8.07;6.37;;;;;;;2.72;100.00;96636.13;5139976;27;20210;-61
2021/12/04 04:18:21;;;;;;;10.83;6.80;;;;;;;2.69;100.00;96631.94;5140001;27;20235;-61
2021/12/04 04:20:47;;;;;;;9.50;6.10;;;;;;;2.77;100.00;96634.09;5141708;27;20220;-61
2021/12/04 04:23:14;;;;;;;9.93;6.53;;;;;;;2.81;100.00;96636.41;5139479;27;20220;-61
2021/12/04 04:25:40;;;;;;;9.73;6.30;;;;;;;2.82;100.00;96632.03;5139725;27;20236;-61
2021/12/04 04:28:07;;;;;;;8.50;6.03;;;;;;;2.80;100.00;96633.88;5139527;27;20670;-61
2021/12/04 04:30:34;;;;;;;7.97;5.90;;;;;;;2.83;100.00;96623.28;5134987;27;20220;-61
2021/12/04 04:33:02;;;;;;;6.77;5.73;;;;;;;2.81;100.00;96609.50;5139189;27;20702;-62
2021/12/04 04:35:32;;;;;;;8.13;5.70;;;;;;;2.84;100.00;96610.13;5139268;27;20591;-62
2021/12/04 04:38:06;;;;;;;7.90;5.93;;;;;;;2.88;100.00;96616.81;5139720;27;20219;-62
2021/12/04 05:11:37;;;;;;;8.53;6.73;;;;;;;3.04;100.00;96570.56;5136997;27;20236;-60
2021/12/04 05:14:05;;;;;;;8.07;6.37;;;;;;;3.06;100.00;96567.88;5139123;27;20295;-60
2021/12/04 05:16:42;;;;;;;9.80;7.57;;;;;;;3.06;100.00;96566.06;5139023;27;20598;-61
2021/12/04 05:19:25;;;;;;;10.70;7.30;;;;;;;3.07;100.00;96552.09;5133831;27;20220;-61
2021/12/04 05:21:51;;;;;;;8.77;6.20;;;;;;;3.10;100.00;96554.50;5136943;27;20265;-61
2021/12/04 05:24:19;;;;;;;7.47;5.57;;;;;;;3.11;100.00;96553.56;5137946;27;20564;-61
2021/12/04 05:26:45;;;;;;;7.87;5.83;;;;;;;3.13;100.00;96549.06;5138494;27;20220;-61
2021/12/04 05:29:12;;;;;;;6.70;5.50;;;;;;;3.16;100.00;96551.50;5139673;27;20214;-61
2021/12/04 05:31:38;;;;;;;6.77;5.03;;;;;;;3.17;100.00;96549.75;5140068;27;20233;-61
2021/12/04 05:34:05;;;;;;;6.77;5.37;;;;;;;3.09;100.00;96547.63;5138120;27;20678;-61
2021/12/04 05:36:31;;;;;;;6.73;5.37;;;;;;;3.06;100.00;96550.41;5138328;27;20236;-61
2021/12/04 05:38:58;;;;;;;7.40;5.67;;;;;;;3.11;100.00;96545.75;5138578;27;20209;-61
2021/12/04 05:41:26;;;;;;;8.53;5.73;;;;;;;3.10;100.00;96549.28;5140460;27;20216;-61
2021/12/04 05:43:52;;;;;;;6.93;5.07;;;;;;;3.14;100.00;96539.50;5138175;27;20237;-61
2021/12/04 05:46:20;;;;;;;7.27;5.53;;;;;;;3.13;100.00;96537.81;5137943;27;20239;-61
2021/12/04 05:48:50;;;;;;;8.03;5.73;;;;;;;3.10;100.00;96541.47;5136478;27;20262;-61
2021/12/04 05:51:35;;;;;;;7.70;5.70;;;;;;;3.10;100.00;96531.03;5139862;27;20246;-61
2021/12/04 05:54:05;;;;;;;8.70;5.47;;;;;;;3.11;100.00;96527.47;5137726;27;20245;-61
2021/12/04 05:56:35;;;;;;;7.77;5.17;;;;;;;3.06;100.00;96524.31;5133204;27;20675;-61
2021/12/04 05:59:02;;;;;;;6.67;5.13;;;;;;;3.06;100.00;96532.16;5140412;27;20217;-60
2021/12/04 06:01:29;;;;;;;6.23;4.67;;;;;;;3.10;100.00;96523.19;5137976;27;20220;-61
2021/12/04 06:03:56;;;;;;;5.90;4.83;;;;;;;3.08;100.00;96522.47;5137772;27;20217;-61
2021/12/04 06:06:22;;;;;;;6.47;5.17;;;;;;;3.07;100.00;96526.00;5134558;27;20209;-62
2021/12/04 06:08:49;;;;;;;6.30;5.53;;;;;;;3.05;100.00;96517.44;5140453;27;20217;-62
2021/12/04 06:11:15;;;;;;;10.27;7.13;;;;;;;3.00;100.00;96522.09;5137250;27;20221;-61
2021/12/04 06:13:43;;;;;;;8.37;6.30;;;;;;;3.01;100.00;96523.78;5136735;27;20214;-59
2021/12/04 06:16:11;;;;;;;7.97;6.53;;;;;;;3.04;100.00;96515.75;5135852;27;20205;-60
2021/12/04 06:18:37;;;;;;;8.27;5.77;;;;;;;3.05;100.00;96514.81;5140134;27;20214;-58
2021/12/04 06:23:48;;;;;;;8.00;5.70;;;;;;;3.02;100.00;96508.97;5137233;27;20220;-57
2021/12/04 06:26:15;;;;;;;7.90;5.83;;;;;;;3.01;100.00;96505.50;5138466;27;20209;-56
2021/12/04 06:28:42;;;;;;;9.40;5.73;;;;;;;3.02;100.00;96514.19;5139372;27;20208;-54
2021/12/04 06:31:10;;;;;;;7.80;5.77;;;;;;;3.06;100.00;96505.25;5137468;27;20255;-56
2021/12/04 06:33:38;;;;;;;7.90;6.17;;;;;;;3.07;100.00;96502.50;5137233;27;20261;-56
2021/12/04 06:36:05;;;;;;;7.23;6.00;;;;;;;3.11;100.00;96504.00;5138119;27;20213;-59
2021/12/04 06:38:32;;;;;;;9.30;6.63;;;;;;;3.08;100.00;96503.34;5138648;27;20213;-57
2021/12/04 06:40:59;;;;;;;9.00;6.43;;;;;;;3.06;100.00;96505.25;5135273;27;20214;-57
2021/12/04 06:43:26;;;;;;;9.33;6.33;;;;;;;3.08;100.00;96508.56;5136924;27;20209;-57
2021/12/04 06:45:58;;;;;;;6.97;5.93;;;;;;;3.09;100.00;96508.47;5137972;27;20262;-56
2021/12/04 06:48:32;;;;;;;9.70;6.20;;;;;;;3.07;100.00;96496.47;5138056;27;20214;-55
2021/12/04 06:51:05;;;;;;;7.00;6.10;;;;;;;3.12;100.00;96494.41;5137059;27;20253;-57
2021/12/04 06:53:37;;;;;;;8.27;6.20;;;;;;;3.14;100.00;96487.28;5132250;27;20268;-55
2021/12/04 06:56:06;;;;;;;8.63;6.83;;;;;;;3.15;100.00;96483.75;5139817;27;20642;-57
2021/12/04 06:58:32;;;;;;;8.67;6.63;;;;;;;3.22;100.00;96482.41;5137021;27;20284;-55
2021/12/04 07:00:59;;;;;;;9.13;6.80;;;;;;;3.27;100.00;96489.00;5136603;27;20213;-58
2021/12/04 07:03:27;;;;;;;8.77;6.80;;;;;;;3.29;100.00;96481.88;5136814;27;20583;-54
2021/12/04 07:05:54;;;;;;;8.90;6.47;;;;;;;3.35;100.00;96480.63;5138651;27;20252;-58
2021/12/04 07:08:20;;;;;;;8.23;6.63;;;;;;;3.35;100.00;96491.06;5135793;27;20206;-56
2021/12/04 07:10:47;;;;;;;8.70;6.33;;;;;;;3.35;100.00;96486.69;5136851;27;20216;-53
2021/12/04 07:13:13;;;;;;;6.87;5.33;;;;;;;3.33;100.00;96483.38;5136683;27;20603;-54
2021/12/04 07:15:41;;;;;;;9.40;6.40;;;;;;;3.35;100.00;96478.88;5139668;27;20212;-57
2021/12/04 07:18:08;;;;;;;8.37;6.27;;;;;;;3.38;100.00;96483.91;5136445;27;20293;-55
2021/12/04 07:20:36;;;;;;;8.73;6.20;;;;;;;3.45;100.00;96477.31;5136729;27;20236;-56
2021/12/04 07:23:02;;;;;;;8.07;6.07;;;;;;;3.50;100.00;96480.47;5136749;27;20216;-57
2021/12/04 07:25:29;;;;;;;7.50;5.47;;;;;;;3.56;100.00;96476.59;5139852;27;20213;-57
2021/12/04 07:27:56;;;;;;;8.03;6.00;;;;;;;3.58;100.00;96467.72;5141033;27;20216;-56
2021/12/04 07:30:24;;;;;;;7.50;6.03;;;;;;;3.59;100.00;96468.53;5140613;27;20586;-55
2021/12/04 07:32:51;;;;;;;7.23;5.30;;;;;;;3.61;100.00;96461.47;5134083;27;20307;-56
2021/12/04 07:35:18;;;;;;;7.67;6.13;;;;;;;3.64;100.00;96471.69;5143663;27;20231;-55
2021/12/04 07:37:46;;;;;;;7.17;5.83;;;;;;;3.62;100.00;96468.34;5140522;27;20287;-55
2021/12/04 07:40:13;;;;;;;7.57;5.83;;;;;;;3.67;100.00;96466.25;5140668;27;20218;-57
2021/12/04 07:42:39;;;;;;;6.43;5.40;;;;;;;3.72;100.00;96462.38;5135298;27;20216;-54
2021/12/04 07:45:07;;;;;;;6.50;5.27;;;;;;;3.80;100.00;96462.69;5142977;27;20233;-56
2021/12/04 07:47:34;;;;;;;7.47;4.90;;;;;;;3.85;100.00;96460.59;5131959;27;20663;-57
2021/12/04 07:50:01;;;;;;;6.70;5.07;;;;;;;3.88;100.00;96459.53;5140365;27;20210;-52
2021/12/04 07:52:28;;;;;;;6.13;4.90;;;;;;;3.91;100.00;96462.78;5140211;27;20242;-57
2021/12/04 07:54:56;;;;;;;6.70;4.90;;;;;;;3.93;100.00;96468.75;5142954;27;20588;-57
2021/12/04 07:57:23;;;;;;;5.13;4.43;;;;;;;3.99;100.00;96459.66;5131678;27;20614;-57
2021/12/04 07:59:49;;;;;;;5.47;4.60;;;;;;;4.04;100.00;96460.97;5138376;27;20258;-56
2021/12/04 08:02:16;;;;;;;5.60;4.10;;;;;;;4.07;100.00;96460.78;5140092;27;20213;-57
2021/12/04 08:04:42;;;;;;;5.70;4.40;;;;;;;4.09;100.00;96464.13;5140056;27;20210;-56
2021/12/04 08:07:09;;;;;;;6.37;4.37;;;;;;;4.13;100.00;96451.66;5139886;27;20213;-55
2021/12/04 08:09:35;;;;;;;5.47;4.43;;;;;;;4.18;100.00;96453.03;5139752;27;20209;-57
2021/12/04 08:12:04;;;;;;;4.93;4.20;;;;;;;4.26;100.00;96449.84;5139902;27;20234;-56
2021/12/04 08:14:30;;;;;;;6.47;5.00;;;;;;;4.33;100.00;96448.50;5141653;27;20207;-56
2021/12/04 08:16:56;;;;;;;6.23;4.93;;;;;;;4.39;100.00;96450.69;5140454;27;20701;-57
2021/12/04 08:19:23;;;;;;;6.00;4.90;;;;;;;4.47;100.00;96449.16;5139932;27;20234;-56
2021/12/04 08:21:49;;;;;;;7.33;5.20;;;;;;;4.54;100.00;96445.19;5138408;27;20215;-57
2021/12/04 08:24:16;;;;;;;5.90;4.60;;;;;;;4.60;100.00;96447.34;5136336;27;20214;-58
2021/12/04 08:26:44;;;;;;;5.10;4.30;;;;;;;4.69;100.00;96441.44;5140315;27;20210;-57
2021/12/04 08:29:12;;;;;;;5.17;4.20;;;;;;;4.74;100.00;96441.94;5139090;27;20222;-58
2021/12/04 08:31:38;;;;;;;5.03;4.53;;;;;;;4.81;100.00;96437.94;5133280;27;20218;-58
2021/12/04 08:34:05;;;;;;;4.73;4.23;;;;;;;4.85;100.00;96434.16;5139227;27;20245;-59
2021/12/04 08:36:32;;;;;;;4.40;3.93;;;;;;;4.90;100.00;96439.03;5139297;27;20691;-58
2021/12/04 08:38:59;;;;;;;5.07;4.07;;;;;;;4.94;100.00;96443.94;5137122;27;20269;-59
2021/12/04 08:41:27;;;;;;;5.07;3.97;;;;;;;4.98;100.00;96429.69;5138263;27;20218;-58
2021/12/04 08:43:54;;;;;;;4.50;3.50;;;;;;;5.03;100.00;96429.34;5138960;27;20651;-58
2021/12/04 08:46:23;;;;;;;4.60;3.43;;;;;;;5.09;100.00;96436.72;5139432;27;20589;-58
2021/12/04 08:48:51;;;;;;;4.57;3.73;;;;;;;5.15;100.00;96431.03;5137686;27;20214;-59
2021/12/04 08:51:18;;;;;;;4.67;3.20;;;;;;;5.22;100.00;96433.09;5136298;27;20214;-59
2021/12/04 08:53:45;;;;;;;4.43;3.23;;;;;;;5.29;100.00;96429.06;5139008;27;20247;-60
2021/12/04 08:56:12;;;;;;;3.00;2.70;;;;;;;5.36;100.00;96430.25;5139515;27;20214;-59
2021/12/04 08:58:40;;;;;;;3.80;2.90;;;;;;;5.43;100.00;96430.66;5137961;27;20214;-59
2021/12/04 09:01:12;;;;;;;4.40;3.77;;;;;;;5.47;100.00;96427.69;5137497;27;20380;-59
2021/12/04 09:03:44;;;;;;;3.37;3.07;;;;;;;5.52;100.00;96436.03;5139672;27;20285;-60
2021/12/04 09:06:10;;;;;;;3.67;3.30;;;;;;;5.58;100.00;96434.72;5137670;27;20425;-60
2021/12/04 09:08:37;;;;;;;3.50;3.10;;;;;;;5.62;100.00;96425.69;5137930;27;20225;-60
2021/12/04 09:11:07;;;;;;;4.10;2.90;;;;;;;5.65;100.00;96428.03;5137708;27;20215;-60
2021/12/04 09:13:34;;;;;;;3.37;3.07;;;;;;;5.69;100.00;96430.31;5140019;27;20236;-60
2021/12/04 09:16:01;;;;;;;3.30;3.00;;;;;;;5.70;100.00;96421.53;5137727;27;20218;-60
2021/12/04 09:18:28;;;;;;;3.83;3.33;;;;;;;5.74;100.00;96422.13;5135791;27;20210;-59
2021/12/04 09:20:57;;;;;;;3.83;3.23;;;;;;;5.78;100.00;96420.91;5137566;27;20212;-60
2021/12/04 09:23:27;;;;;;;3.73;3.33;;;;;;;5.86;100.00;96424.63;5139622;27;20215;-60
2021/12/04 09:25:58;;;;;;;4.10;3.10;;;;;;;5.93;100.00;96419.75;5129091;27;20216;-60
2021/12/04 09:28:27;;;;;;;3.67;3.37;;;;;;;6.00;100.00;96416.56;5137335;27;20215;-60
2021/12/04 10:01:39;;;;;;;2.70;1.87;;;;;;;6.62;100.00;96387.94;5128516;27;20273;-61
2021/12/04 10:12:52;;;;;;;1.83;1.47;;;;;;;6.93;100.00;96371.34;5137291;27;20232;-61
2021/12/04 10:18:35;;;;;;;2.63;1.60;;;;;;;6.93;100.00;96351.19;5120099;27;20209;-62
2021/12/04 10:21:29;;;;;;;1.90;1.60;;;;;;;6.95;100.00;96346.63;5128286;27;20670;-61
2021/12/04 10:24:24;;;;;;;2.17;1.70;;;;;;;6.97;100.00;96342.06;5130906;27;20304;-61
2021/12/04 10:32:31;;;;;;;1.60;1.50;;;;;;;7.11;100.00;96327.78;5138789;27;20252;-61
2021/12/04 10:35:00;;;;;;;2.00;1.80;;;;;;;7.18;100.00;96318.44;5135830;27;20674;-61
2021/12/04 10:37:29;;;;;;;1.87;1.53;;;;;;;7.28;100.00;96314.91;5134454;27;20209;-61
2021/12/04 10:39:59;;;;;;;4.27;2.33;;;;;;;7.35;100.00;96310.81;5136681;27;20218;-61
2021/12/04 10:42:32;;;;;;;1.97;1.80;;;;;;;7.44;100.00;96299.50;5136811;27;20689;-61
2021/12/04 10:45:00;;;;;;;2.13;1.80;;;;;;;7.50;100.00;96296.34;5136317;27;20241;-61
2021/12/04 10:47:27;;;;;;;2.27;1.70;;;;;;;7.59;100.00;96288.50;5136332;27;20525;-61
2021/12/04 10:50:07;;;;;;;2.43;1.90;;;;;;;7.65;100.00;96284.50;5138152;27;20213;-61
2021/12/04 10:52:46;;;;;;;2.40;2.10;;;;;;;7.74;100.00;96276.66;5128658;27;20284;-62
2021/12/04 10:55:19;;;;;;;2.80;2.10;;;;;;;7.80;100.00;96281.38;5135819;27;20213;-61
2021/12/04 10:58:22;;;;;;;2.13;1.80;;;;;;;7.86;100.00;96272.13;5137694;27;20309;-62
2021/12/04 11:00:57;;;;;;;3.83;2.40;;;;;;;7.94;100.00;96267.00;5131131;27;20582;-62
2021/12/04 11:03:34;;;;;;;2.57;2.30;;;;;;;8.00;100.00;96271.72;5129724;27;20689;-62
2021/12/04 11:22:39;;;;;;;2.53;1.93;;;;;;;8.32;100.00;96228.47;5135172;27;20218;-62
2021/12/04 11:36:22;;;;;;;1.80;1.60;;;;;;;8.57;100.00;96211.28;5135363;27;20768;-62
2021/12/04 11:38:52;;;;;;;2.17;1.60;;;;;;;8.64;100.00;96207.09;5131443;27;20226;-62
2021/12/04 11:41:28;;;;;;;1.20;1.10;;;;;;;8.67;100.00;96204.19;5133020;27;20217;-61
2021/12/04 11:44:01;;;;;;;2.30;1.40;;;;;;;8.66;100.00;96208.63;5135360;27;20315;-61
2021/12/04 11:46:45;;;;;;;1.77;1.50;;;;;;;8.65;100.00;96211.41;5135236;27;20304;-62
2021/12/04 11:49:16;;;;;;;1.40;1.30;;;;;;;8.61;100.00;96215.28;5133367;27;20214;-62
2021/12/04 11:51:52;;;;;;;1.67;1.53;;;;;;;8.59;100.00;96201.44;5134925;27;20222;-61
2021/12/04 11:54:19;;;;;;;1.93;1.40;;;;;;;8.55;100.00;96200.03;5134706;27;20714;-62
2021/12/04 11:56:45;;;;;;;1.83;1.10;;;;;;;8.61;100.00;96202.09;5135673;27;20206;-62
2021/12/04 11:59:12;;;;;;;1.10;1.00;;;;;;;8.65;100.00;96183.28;5135538;27;20214;-62
2021/12/04 12:01:40;;;;;;;1.17;1.00;;;;;;;8.69;100.00;96176.75;5135075;27;20213;-62
2021/12/04 12:04:09;;;;;;;2.10;0.90;;;;;;;8.71;100.00;96166.91;5135161;27;20213;-62
2021/12/04 12:06:38;;;;;;;1.40;1.00;;;;;;;8.77;100.00;96158.44;5134190;27;20226;-62
2021/12/04 12:09:14;;;;;;;1.10;0.80;;;;;;;8.74;100.00;96157.88;5135479;27;20305;-61
2021/12/04 12:11:50;;;;;;;0.67;0.67;;;;;;;8.84;100.00;96148.16;5136317;27;20218;-61
2021/12/04 12:14:19;;;;;;;0.70;0.70;;;;;;;8.86;100.00;96151.47;5139298;27;20708;-62
2021/12/04 12:16:52;;;;;;;0.50;0.50;;;;;;;8.84;100.00;96141.09;5140586;27;20213;-62
2021/12/04 12:19:26;;;;;;;0.50;0.50;;;;;;;8.96;100.00;96144.38;5138624;27;20214;-62
2021/12/04 12:21:58;;;;;;;0.70;0.70;;;;;;;9.03;100.00;96137.53;5138260;27;20682;-62
2021/12/04 12:27:29;;;;;;;0.73;0.70;;;;;;;9.12;100.00;96131.41;5138668;27;20237;-62
2021/12/04 12:33:10;;;;;;;0.60;0.60;;;;;;;9.10;100.00;96122.81;5129865;27;20275;-62
2021/12/04 12:38:37;;;;;;;0.60;0.60;;;;;;;9.16;100.00;96122.22;5134083;27;20212;-62
2021/12/04 12:41:06;;;;;;;1.67;0.60;;;;;;;9.18;100.00;96104.47;5133998;27;20357;-62
2021/12/04 12:43:40;;;;;;;0.53;0.50;;;;;;;9.17;100.00;96118.63;5131494;27;20213;-62
2021/12/04 12:46:07;;;;;;;0.70;0.70;;;;;;;9.19;100.00;96111.41;5139653;27;20696;-62
2021/12/04 12:48:54;;;;;;;0.70;0.70;;;;;;;9.19;100.00;96114.84;5121668;27;20214;-63
2021/12/04 12:51:27;;;;;;;1.03;0.60;;;;;;;9.17;100.00;96113.38;5131915;27;20217;-63
2021/12/04 12:53:54;;;;;;;1.30;1.23;;;;;;;9.10;100.00;96117.53;5134446;27;20241;-63
2021/12/04 12:56:25;;;;;;;1.17;1.00;;;;;;;9.06;100.00;96118.81;5133472;27;20211;-62
2021/12/04 12:58:55;;;;;;;1.10;1.00;;;;;;;9.06;100.00;96111.72;5134034;27;20206;-62
2021/12/04 13:12:48;;;;;;;0.77;0.70;;;;;;;9.20;100.00;96107.78;5132923;27;20223;-63
2021/12/04 13:15:18;;;;;;;0.67;0.67;;;;;;;9.25;100.00;96108.19;5134005;27;20242;-62
2021/12/04 13:17:44;;;;;;;0.90;0.90;;;;;;;9.27;100.00;96114.97;5130909;27;20201;-63
2021/12/04 13:20:12;;;;;;;0.80;0.80;;;;;;;9.15;100.00;96104.75;5131153;27;20295;-63
2021/12/04 13:22:39;;;;;;;0.80;0.80;;;;;;;9.12;100.00;96105.88;5131582;27;20212;-62
2021/12/04 13:25:10;;;;;;;0.83;0.67;;;;;;;9.10;100.00;96112.25;5132277;27;20308;-63
2021/12/04 13:30:07;;;;;;;1.63;0.80;;;;;;;9.07;100.00;96102.03;5133578;27;20218;-63
2021/12/04 13:32:38;;;;;;;1.13;0.80;;;;;;;9.08;100.00;96098.41;5132801;27;20211;-63
2021/12/04 13:35:08;;;;;;;0.83;0.80;;;;;;;9.04;100.00;96102.31;5133891;27;20303;-62
2021/12/04 13:37:36;;;;;;;0.80;0.80;;;;;;;9.02;100.00;96091.09;5132896;27;20206;-63
2021/12/04 13:40:06;;;;;;;0.60;0.60;;;;;;;8.94;100.00;96085.75;5132227;27;20695;-64
2021/12/04 13:42:34;;;;;;;1.53;0.70;;;;;;;8.89;100.00;96095.88;5133401;27;20676;-63
2021/12/04 13:45:02;;;;;;;0.80;0.70;;;;;;;8.87;100.00;96089.94;5131898;27;20242;-64
2021/12/04 13:47:29;;;;;;;0.80;0.70;;;;;;;8.82;100.00;96086.91;5134101;27;20214;-63
2021/12/04 13:49:57;;;;;;;0.90;0.90;;;;;;;8.83;100.00;96093.81;5133571;27;20222;-63
2021/12/04 13:52:25;;;;;;;1.10;0.83;;;;;;;8.82;100.00;96097.44;5123668;27;20259;-63
2021/12/04 13:54:57;;;;;;;0.90;0.70;;;;;;;8.84;100.00;96101.59;5133944;27;20236;-62
2021/12/04 13:57:24;;;;;;;1.80;0.83;;;;;;;8.78;100.00;96096.06;5133852;27;20217;-62
2021/12/04 13:59:50;;;;;;;1.37;1.27;;;;;;;8.74;100.00;96100.78;5132721;27;20222;-63
2021/12/04 14:02:21;;;;;;;1.03;0.93;;;;;;;8.67;100.00;96104.13;5131741;27;20214;-63
2021/12/04 14:04:56;;;;;;;1.17;0.87;;;;;;;8.61;100.00;96109.97;5134724;27;20436;-63
2021/12/04 14:07:22;;;;;;;1.97;1.07;;;;;;;8.60;100.00;96113.56;5134969;27;20217;-63
2021/12/04 14:09:49;;;;;;;1.93;1.20;;;;;;;8.55;100.00;96111.38;5133521;27;20223;-63
2021/12/04 14:12:17;;;;;;;1.77;1.20;;;;;;;8.50;100.00;96110.97;5132236;27;20221;-62